Time;durP1;ratioP1;P1;durP2;ratioP2;P2;SDS_P1;SDS_P2;PMS_P1;PMS_P2;Temp;Humidity;BMP_temperature;BMP_pressure;BME280_temperature;BME280_humidity;BME280_pressure;Samples;Min_cycle;Max_cycle;Signal;HPM_P1;HPM_P2
2023/11/15 00:00:26;;;;;;;3.07;1.20;;;9.40;67.50;;;;;;4984142;28;20211;-54
2023/11/15 00:02:52;;;;;;;1.50;1.40;;;9.40;67.50;;;;;;4988922;28;20204;-54
2023/11/15 00:05:19;;;;;;;1.37;1.27;;;9.40;67.60;;;;;;4986104;28;20233;-54
2023/11/15 00:07:46;;;;;;;1.43;1.33;;;9.40;68.20;;;;;;4993119;28;20650;-55
2023/11/15 00:10:13;;;;;;;1.00;1.00;;;9.50;67.60;;;;;;4992441;28;20222;-52
2023/11/15 00:12:39;;;;;;;1.20;1.20;;;9.50;67.90;;;;;;4993527;28;20218;-53
2023/11/15 00:15:06;;;;;;;1.13;1.13;;;9.50;68.00;;;;;;4993202;28;20311;-56
2023/11/15 00:17:32;;;;;;;1.70;1.60;;;9.60;68.20;;;;;;4993350;28;20211;-53
2023/11/15 00:20:03;;;;;;;1.20;1.20;;;9.60;68.10;;;;;;4984411;28;20703;-53
2023/11/15 00:22:31;;;;;;;1.67;1.37;;;9.60;68.00;;;;;;4981328;28;20668;-54
2023/11/15 00:24:57;;;;;;;1.20;1.20;;;9.60;67.70;;;;;;4993010;28;20238;-53
2023/11/15 00:27:24;;;;;;;1.50;1.50;;;9.60;67.70;;;;;;4992561;28;20322;-52
2023/11/15 00:29:50;;;;;;;2.67;1.40;;;9.60;67.70;;;;;;4981969;28;20220;-56
2023/11/15 00:32:19;;;;;;;1.40;1.30;;;9.60;67.50;;;;;;4990639;28;20656;-53
2023/11/15 00:34:45;;;;;;;1.60;1.50;;;9.60;67.00;;;;;;4993253;28;20671;-53
2023/11/15 00:37:12;;;;;;;1.40;1.30;;;9.70;67.20;;;;;;4979974;28;20270;-52
2023/11/15 00:39:40;;;;;;;1.67;1.30;;;9.70;67.80;;;;;;4985642;28;20589;-53
2023/11/15 00:42:07;;;;;;;1.37;1.37;;;9.70;67.50;;;;;;4989995;28;20216;-55
2023/11/15 00:44:33;;;;;;;1.17;1.17;;;9.70;67.40;;;;;;4988522;28;20242;-54
2023/11/15 00:47:00;;;;;;;1.67;1.57;;;9.70;67.80;;;;;;4985513;28;20303;-51
2023/11/15 00:49:26;;;;;;;1.40;1.30;;;9.70;67.80;;;;;;4992243;28;20207;-54
2023/11/15 00:51:54;;;;;;;1.53;1.47;;;9.70;67.80;;;;;;4989329;28;20579;-53
2023/11/15 00:54:20;;;;;;;1.30;1.30;;;9.80;67.90;;;;;;4988090;28;20209;-52
2023/11/15 00:56:47;;;;;;;2.97;1.60;;;9.70;68.20;;;;;;4984572;28;20202;-55
2023/11/15 00:59:13;;;;;;;1.30;1.30;;;9.80;68.00;;;;;;4989948;28;20215;-52
2023/11/15 01:01:40;;;;;;;1.30;1.30;;;9.80;68.20;;;;;;4991120;28;20208;-53
2023/11/15 01:04:07;;;;;;;1.63;1.53;;;9.90;68.60;;;;;;4992203;28;20270;-55
2023/11/15 01:06:33;;;;;;;1.50;1.40;;;9.80;68.80;;;;;;4983492;28;20265;-53
2023/11/15 01:09:02;;;;;;;1.70;1.60;;;9.90;68.70;;;;;;4992630;28;20317;-51
2023/11/15 01:11:29;;;;;;;1.37;1.30;;;9.90;68.90;;;;;;4985998;28;20663;-56
2023/11/15 01:13:55;;;;;;;1.90;1.30;;;9.90;68.30;;;;;;4988239;28;20215;-53
2023/11/15 01:16:23;;;;;;;1.80;1.23;;;9.90;68.90;;;;;;4985073;28;20243;-55
2023/11/15 01:18:50;;;;;;;1.50;1.40;;;9.90;69.50;;;;;;4990770;28;20300;-52
2023/11/15 01:21:18;;;;;;;1.83;1.20;;;9.90;68.90;;;;;;4990662;28;20212;-57
2023/11/15 01:23:44;;;;;;;1.50;1.40;;;9.90;69.70;;;;;;4991304;28;20640;-55
2023/11/15 01:26:11;;;;;;;1.43;1.43;;;9.90;69.40;;;;;;4984357;28;20315;-52
2023/11/15 01:28:37;;;;;;;1.57;1.43;;;9.90;70.90;;;;;;4992583;28;20230;-52
2023/11/15 01:31:04;;;;;;;1.30;1.30;;;9.80;72.40;;;;;;4990669;28;20448;-52
2023/11/15 01:33:30;;;;;;;1.30;1.20;;;9.80;73.10;;;;;;4985324;28;20223;-55
2023/11/15 01:35:57;;;;;;;2.27;1.53;;;9.80;72.90;;;;;;4989167;28;20255;-53
2023/11/15 01:38:23;;;;;;;1.63;1.30;;;9.70;72.30;;;;;;4991587;28;20216;-53
2023/11/15 01:40:50;;;;;;;2.37;1.70;;;9.80;70.30;;;;;;4988232;28;20301;-54
2023/11/15 01:43:16;;;;;;;1.57;1.20;;;9.80;69.30;;;;;;4992372;28;20293;-55
2023/11/15 01:45:43;;;;;;;1.47;1.37;;;9.90;68.00;;;;;;4990995;28;20725;-53
2023/11/15 01:48:09;;;;;;;2.07;1.63;;;9.90;68.00;;;;;;4991112;28;20226;-55
2023/11/15 01:50:36;;;;;;;1.67;1.37;;;10.00;65.50;;;;;;4985236;28;20714;-53
2023/11/15 01:53:02;;;;;;;3.23;1.50;;;10.00;65.00;;;;;;4986123;28;20316;-55
2023/11/15 01:55:29;;;;;;;2.30;2.07;;;10.10;63.60;;;;;;4991678;28;20236;-54
2023/11/15 01:57:56;;;;;;;1.23;1.17;;;10.10;63.30;;;;;;4987233;28;20220;-53
2023/11/15 02:00:22;;;;;;;1.50;1.40;;;10.10;62.60;;;;;;4983303;28;20299;-54
2023/11/15 02:02:49;;;;;;;1.87;1.77;;;10.10;62.90;;;;;;4990308;28;20759;-54
2023/11/15 02:05:15;;;;;;;1.60;1.50;;;10.10;62.60;;;;;;4992125;28;20247;-53
2023/11/15 02:07:42;;;;;;;1.40;1.20;;;10.10;62.00;;;;;;4978225;28;20242;-53
2023/11/15 02:10:08;;;;;;;1.80;1.50;;;10.10;61.80;;;;;;4991265;28;20212;-56
2023/11/15 02:12:35;;;;;;;1.47;1.37;;;10.10;62.10;;;;;;4991225;28;20217;-56
2023/11/15 02:15:01;;;;;;;1.50;1.40;;;10.00;62.40;;;;;;4991555;28;20240;-55
2023/11/15 02:17:28;;;;;;;1.47;1.37;;;10.10;62.50;;;;;;4989064;28;20654;-56
2023/11/15 02:19:55;;;;;;;1.93;1.30;;;10.10;62.50;;;;;;4983528;28;20263;-52
2023/11/15 02:22:21;;;;;;;2.57;1.40;;;10.10;61.90;;;;;;4989768;28;20264;-53
2023/11/15 02:24:48;;;;;;;1.93;1.50;;;10.10;62.10;;;;;;4991148;28;20225;-53
2023/11/15 02:27:14;;;;;;;1.40;1.30;;;10.10;61.50;;;;;;4986207;28;20205;-56
2023/11/15 02:29:41;;;;;;;1.53;1.43;;;10.10;62.50;;;;;;4986352;28;20233;-54
2023/11/15 02:32:09;;;;;;;1.47;1.40;;;10.00;62.40;;;;;;4990492;28;20223;-54
2023/11/15 02:34:35;;;;;;;2.60;1.60;;;10.10;62.60;;;;;;4983637;28;20226;-53
2023/11/15 02:37:02;;;;;;;2.30;1.50;;;10.00;63.00;;;;;;4983501;28;20714;-55
2023/11/15 02:39:29;;;;;;;1.77;1.40;;;10.00;62.60;;;;;;4989993;28;20231;-56
2023/11/15 02:41:55;;;;;;;1.60;1.50;;;9.90;63.40;;;;;;4986459;28;20216;-56
2023/11/15 02:44:21;;;;;;;1.40;1.40;;;9.90;64.30;;;;;;4991362;28;20291;-56
2023/11/15 02:46:48;;;;;;;1.40;1.40;;;9.80;65.10;;;;;;4990568;28;20225;-57
2023/11/15 02:49:14;;;;;;;2.83;2.10;;;9.80;65.90;;;;;;4989763;28;20236;-56
2023/11/15 02:51:41;;;;;;;1.53;1.43;;;9.80;66.60;;;;;;4990958;28;20866;-57
2023/11/15 02:54:07;;;;;;;1.70;1.60;;;9.80;67.40;;;;;;4984560;28;20210;-55
2023/11/15 02:56:34;;;;;;;2.13;1.43;;;9.80;67.90;;;;;;4988277;28;20251;-57
2023/11/15 02:59:00;;;;;;;1.60;1.50;;;9.70;67.90;;;;;;4986175;28;20687;-54
2023/11/15 03:01:26;;;;;;;1.63;1.50;;;9.80;67.90;;;;;;4985257;28;20587;-55
2023/11/15 03:03:53;;;;;;;1.50;1.40;;;9.70;67.80;;;;;;4991399;28;20586;-55
2023/11/15 03:06:19;;;;;;;1.47;1.20;;;9.70;67.80;;;;;;4990946;28;20598;-56
2023/11/15 03:08:46;;;;;;;1.50;1.40;;;9.70;68.30;;;;;;4983409;28;20228;-56
2023/11/15 03:11:13;;;;;;;1.57;1.47;;;9.70;67.80;;;;;;4986658;28;20216;-55
2023/11/15 03:13:40;;;;;;;1.43;1.33;;;9.80;67.90;;;;;;4983592;28;20214;-54
2023/11/15 03:16:06;;;;;;;1.40;1.30;;;9.80;67.90;;;;;;4989793;28;20231;-56
2023/11/15 03:18:33;;;;;;;1.70;1.40;;;9.80;67.90;;;;;;4990050;28;20610;-56
2023/11/15 03:20:59;;;;;;;1.40;1.40;;;9.80;67.90;;;;;;4989952;28;20620;-54
2023/11/15 03:23:26;;;;;;;1.30;1.30;;;9.70;67.20;;;;;;4982905;28;20642;-57
2023/11/15 03:25:52;;;;;;;1.53;1.43;;;9.70;67.20;;;;;;4990412;28;20600;-53
2023/11/15 03:28:19;;;;;;;2.27;1.40;;;9.70;66.90;;;;;;4993685;28;20623;-56
2023/11/15 03:30:45;;;;;;;1.50;1.40;;;9.60;66.60;;;;;;4981492;28;20236;-56
2023/11/15 03:33:12;;;;;;;1.93;1.63;;;9.60;66.40;;;;;;4992315;28;20304;-53
2023/11/15 03:35:38;;;;;;;2.63;1.60;;;9.60;66.30;;;;;;4994588;28;20224;-52
2023/11/15 03:38:04;;;;;;;1.73;1.57;;;9.50;65.70;;;;;;4986105;28;20269;-53
2023/11/15 03:40:31;;;;;;;2.00;1.50;;;9.50;66.30;;;;;;4986267;28;20214;-55
2023/11/15 03:42:57;;;;;;;1.47;1.30;;;9.40;65.50;;;;;;4983551;28;20295;-55
2023/11/15 03:45:24;;;;;;;1.60;1.50;;;9.40;65.50;;;;;;4992257;28;20796;-53
2023/11/15 03:47:50;;;;;;;1.33;1.30;;;9.50;65.30;;;;;;4987003;28;20263;-52
2023/11/15 03:50:17;;;;;;;2.27;1.90;;;9.50;64.80;;;;;;4993373;28;20239;-52
2023/11/15 03:52:44;;;;;;;2.10;1.30;;;9.50;64.40;;;;;;4985858;28;20216;-52
2023/11/15 03:55:10;;;;;;;1.70;1.60;;;9.50;64.10;;;;;;4992989;28;20232;-56
2023/11/15 03:57:37;;;;;;;1.50;1.33;;;9.50;63.70;;;;;;4988876;28;20207;-54
2023/11/15 04:00:05;;;;;;;1.60;1.50;;;9.60;63.20;;;;;;4988928;28;20206;-53
2023/11/15 04:02:32;;;;;;;1.47;1.33;;;9.60;62.50;;;;;;4989141;28;20214;-55
2023/11/15 04:04:59;;;;;;;1.53;1.37;;;9.60;62.70;;;;;;4978752;28;20261;-55
2023/11/15 04:07:26;;;;;;;1.50;1.50;;;9.60;62.20;;;;;;4984558;28;20267;-55
2023/11/15 04:09:52;;;;;;;1.40;1.30;;;9.60;62.40;;;;;;4994038;28;20231;-52
2023/11/15 04:12:20;;;;;;;1.60;1.40;;;9.50;61.80;;;;;;4986309;28;20239;-53
2023/11/15 04:14:46;;;;;;;3.50;2.30;;;9.50;61.70;;;;;;4993919;28;20227;-52
2023/11/15 04:17:14;;;;;;;1.40;1.30;;;9.50;61.40;;;;;;4984167;28;20209;-52
2023/11/15 04:19:40;;;;;;;2.77;1.33;;;9.50;61.20;;;;;;4994049;28;20204;-51
2023/11/15 04:22:07;;;;;;;1.77;1.50;;;9.50;61.10;;;;;;4981046;28;20216;-53
2023/11/15 04:24:33;;;;;;;3.63;2.37;;;9.50;61.40;;;;;;4980546;28;22709;-51
2023/11/15 04:27:00;;;;;;;2.13;1.30;;;9.50;60.90;;;;;;4993110;28;20234;-51
2023/11/15 04:29:27;;;;;;;2.33;1.60;;;9.50;60.80;;;;;;4993325;28;20287;-51
2023/11/15 04:31:53;;;;;;;1.37;1.27;;;9.40;60.80;;;;;;4987167;28;20308;-50
2023/11/15 04:34:20;;;;;;;1.40;1.30;;;9.40;60.90;;;;;;4993729;28;20688;-54
2023/11/15 04:36:47;;;;;;;1.20;1.20;;;9.40;60.50;;;;;;4987760;28;20208;-51
2023/11/15 04:39:13;;;;;;;1.13;1.13;;;9.50;60.60;;;;;;4985502;28;20293;-55
2023/11/15 04:41:40;;;;;;;1.47;1.37;;;9.50;60.60;;;;;;4993018;28;20587;-54
2023/11/15 04:44:06;;;;;;;1.70;1.60;;;9.50;61.00;;;;;;4989283;28;20208;-52
2023/11/15 04:46:34;;;;;;;1.67;1.30;;;9.50;61.40;;;;;;4989524;28;20315;-55
2023/11/15 04:49:00;;;;;;;1.60;1.30;;;9.50;61.60;;;;;;4982242;28;20320;-55
2023/11/15 04:51:26;;;;;;;1.27;1.17;;;9.40;61.50;;;;;;4990675;28;20211;-51
2023/11/15 04:53:53;;;;;;;1.40;1.30;;;9.40;61.70;;;;;;4989909;28;20672;-55
2023/11/15 04:56:22;;;;;;;1.60;1.50;;;9.30;62.10;;;;;;4989047;28;20288;-53
2023/11/15 04:58:49;;;;;;;2.20;1.37;;;9.30;62.80;;;;;;4988276;28;20195;-51
2023/11/15 05:01:15;;;;;;;1.53;1.43;;;9.20;62.60;;;;;;4990143;28;20211;-54
2023/11/15 05:03:42;;;;;;;2.77;1.83;;;9.20;62.70;;;;;;4990042;28;20296;-52
2023/11/15 05:06:09;;;;;;;1.33;1.30;;;9.20;62.80;;;;;;4988749;28;20678;-51
2023/11/15 05:08:35;;;;;;;2.13;1.60;;;9.20;63.10;;;;;;4990844;28;20251;-53
2023/11/15 05:11:02;;;;;;;1.53;1.33;;;9.20;63.60;;;;;;4992385;28;20614;-52
2023/11/15 05:13:29;;;;;;;1.50;1.20;;;9.10;63.80;;;;;;4989851;28;20231;-54
2023/11/15 05:15:56;;;;;;;2.23;1.40;;;9.10;63.80;;;;;;4984798;28;20223;-51
2023/11/15 05:18:22;;;;;;;2.00;1.30;;;9.10;64.10;;;;;;4992327;28;20215;-50
2023/11/15 05:20:49;;;;;;;1.93;1.40;;;9.00;64.50;;;;;;4988106;28;20375;-52
2023/11/15 05:23:15;;;;;;;1.83;1.30;;;9.00;64.40;;;;;;4992724;28;20212;-52
2023/11/15 05:25:42;;;;;;;1.90;1.80;;;9.00;64.90;;;;;;4982633;28;20259;-52
2023/11/15 05:28:08;;;;;;;1.93;1.23;;;9.00;64.60;;;;;;4988540;28;20377;-50
2023/11/15 05:30:35;;;;;;;2.23;1.57;;;9.00;64.80;;;;;;4992280;28;20263;-53
2023/11/15 05:33:01;;;;;;;1.67;1.57;;;9.00;65.00;;;;;;4981122;28;20311;-54
2023/11/15 05:35:28;;;;;;;2.03;1.87;;;9.00;65.10;;;;;;4984553;28;20282;-55
2023/11/15 05:37:54;;;;;;;1.80;1.70;;;9.00;64.50;;;;;;4975469;28;20661;-52
2023/11/15 05:40:21;;;;;;;1.80;1.60;;;9.00;64.70;;;;;;4989980;28;20237;-54
2023/11/15 05:42:47;;;;;;;1.73;1.40;;;8.90;64.70;;;;;;4983289;28;20366;-52
2023/11/15 05:45:15;;;;;;;1.60;1.50;;;9.00;63.90;;;;;;4989160;28;20241;-54
2023/11/15 05:47:41;;;;;;;2.10;1.43;;;9.00;63.60;;;;;;4990492;28;20222;-55
2023/11/15 05:50:09;;;;;;;1.60;1.50;;;9.00;63.40;;;;;;4980298;28;20232;-55
2023/11/15 05:52:37;;;;;;;2.43;1.50;;;9.00;63.60;;;;;;4986207;28;20597;-55
2023/11/15 05:55:04;;;;;;;1.63;1.53;;;9.00;63.40;;;;;;4977030;28;20734;-55
2023/11/15 05:57:32;;;;;;;1.67;1.53;;;9.10;63.30;;;;;;4989338;28;20218;-52
2023/11/15 05:59:59;;;;;;;2.53;1.87;;;9.10;63.00;;;;;;4984103;28;20211;-54
2023/11/15 06:02:25;;;;;;;1.93;1.53;;;9.10;62.70;;;;;;4991025;28;20658;-55
2023/11/15 06:04:52;;;;;;;2.23;1.60;;;9.10;63.20;;;;;;4988667;28;20228;-53
2023/11/15 06:07:18;;;;;;;3.27;1.60;;;9.10;62.80;;;;;;4981015;28;20657;-56
2023/11/15 06:09:46;;;;;;;3.53;1.70;;;9.00;62.90;;;;;;4985263;28;21145;-56
2023/11/15 06:12:12;;;;;;;1.53;1.43;;;9.00;63.40;;;;;;4991612;28;20216;-56
2023/11/15 06:14:39;;;;;;;1.80;1.70;;;9.00;63.00;;;;;;4986094;28;20230;-53
2023/11/15 06:17:05;;;;;;;3.30;2.33;;;9.00;63.50;;;;;;4987595;28;20217;-53
2023/11/15 06:19:32;;;;;;;3.87;1.90;;;9.00;63.30;;;;;;4986679;28;20686;-55
2023/11/15 06:21:59;;;;;;;1.63;1.53;;;9.00;63.70;;;;;;4991022;28;20617;-53
2023/11/15 06:24:26;;;;;;;2.13;1.97;;;9.00;63.30;;;;;;4985229;28;20204;-56
2023/11/15 06:26:52;;;;;;;1.60;1.50;;;9.00;63.70;;;;;;4989644;28;20268;-54
2023/11/15 06:29:21;;;;;;;2.73;1.73;;;8.90;63.40;;;;;;4989276;28;20252;-53
2023/11/15 06:31:48;;;;;;;1.50;1.40;;;8.90;63.60;;;;;;4988124;28;20357;-55
2023/11/15 06:34:14;;;;;;;4.20;1.73;;;8.90;63.50;;;;;;4986565;28;20212;-52
2023/11/15 06:36:41;;;;;;;3.23;1.60;;;9.00;63.40;;;;;;4986516;28;20211;-53
2023/11/15 06:39:09;;;;;;;1.70;1.53;;;9.00;63.10;;;;;;4987325;28;20647;-55
2023/11/15 06:41:38;;;;;;;1.87;1.60;;;9.00;63.30;;;;;;4980293;28;20204;-55
2023/11/15 06:44:05;;;;;;;2.77;1.67;;;9.00;63.00;;;;;;4986284;28;20216;-56
2023/11/15 06:46:32;;;;;;;2.93;1.70;;;9.10;63.30;;;;;;4989260;28;20224;-52
2023/11/15 06:48:58;;;;;;;1.67;1.57;;;9.10;62.80;;;;;;4985214;28;20232;-54
2023/11/15 06:51:25;;;;;;;1.70;1.60;;;9.10;62.70;;;;;;4984714;28;20314;-52
2023/11/15 06:53:53;;;;;;;1.70;1.40;;;9.20;63.00;;;;;;4991348;28;20586;-53
2023/11/15 06:56:19;;;;;;;2.03;1.90;;;9.20;62.90;;;;;;4979681;28;20236;-51
2023/11/15 06:58:46;;;;;;;2.53;1.87;;;9.10;63.00;;;;;;4989863;28;20201;-54
2023/11/15 07:01:12;;;;;;;2.37;1.33;;;9.20;63.00;;;;;;4992177;28;20209;-53
2023/11/15 07:03:38;;;;;;;2.83;1.80;;;9.30;63.20;;;;;;4992253;28;20205;-55
2023/11/15 07:06:05;;;;;;;2.07;1.40;;;9.30;62.70;;;;;;4992581;28;20323;-56
2023/11/15 07:08:33;;;;;;;2.83;1.80;;;9.30;62.80;;;;;;4991067;28;20204;-54
2023/11/15 07:11:01;;;;;;;1.60;1.50;;;9.40;62.80;;;;;;4990238;28;20238;-54
2023/11/15 07:13:29;;;;;;;2.20;1.90;;;9.40;62.90;;;;;;4993318;28;20235;-51
2023/11/15 07:16:01;;;;;;;2.30;1.40;;;9.40;62.90;;;;;;4981104;28;20696;-53
2023/11/15 07:18:28;;;;;;;2.10;1.90;;;9.40;62.70;;;;;;4992265;28;20622;-52
2023/11/15 07:20:55;;;;;;;2.93;1.90;;;9.40;62.90;;;;;;4991559;28;20204;-55
2023/11/15 07:23:21;;;;;;;2.60;1.67;;;9.40;62.90;;;;;;4996790;28;20685;-57
2023/11/15 07:25:48;;;;;;;2.43;1.47;;;9.50;63.50;;;;;;4995084;28;20224;-64
2023/11/15 07:28:14;;;;;;;2.10;1.80;;;9.50;62.50;;;;;;4996401;28;20224;-55
2023/11/15 07:30:42;;;;;;;1.70;1.60;;;9.60;62.30;;;;;;4992765;28;20233;-56
2023/11/15 07:33:08;;;;;;;1.87;1.50;;;9.60;62.40;;;;;;4995555;28;20311;-55
2023/11/15 07:35:36;;;;;;;2.77;1.60;;;9.50;62.30;;;;;;4985057;28;20233;-52
2023/11/15 07:38:03;;;;;;;2.07;1.50;;;9.60;62.70;;;;;;4989064;28;20675;-55
2023/11/15 07:40:29;;;;;;;2.80;2.23;;;9.50;62.30;;;;;;4987983;28;20197;-54
2023/11/15 07:42:57;;;;;;;4.27;1.67;;;9.60;62.10;;;;;;4984004;28;20267;-51
2023/11/15 07:45:23;;;;;;;1.93;1.50;;;9.60;62.90;;;;;;4991583;28;20228;-56
2023/11/15 07:47:50;;;;;;;3.17;1.70;;;9.50;62.50;;;;;;4994571;28;20221;-53
2023/11/15 07:50:17;;;;;;;4.20;2.17;;;9.60;62.10;;;;;;4994445;28;20232;-52
2023/11/15 07:52:45;;;;;;;1.93;1.80;;;9.70;61.90;;;;;;4973354;28;20210;-53
2023/11/15 07:55:11;;;;;;;1.93;1.50;;;9.70;61.70;;;;;;4975422;28;20236;-54
2023/11/15 07:57:38;;;;;;;2.17;1.90;;;9.70;61.80;;;;;;4978591;28;20206;-51
2023/11/15 08:00:08;;;;;;;3.37;1.50;;;9.70;62.10;;;;;;4993633;28;20295;-52
2023/11/15 08:02:37;;;;;;;2.30;2.10;;;9.60;61.80;;;;;;4984105;28;20751;-54
2023/11/15 08:05:05;;;;;;;1.87;1.67;;;9.70;62.20;;;;;;4980125;28;20232;-56
2023/11/15 08:07:32;;;;;;;1.87;1.77;;;9.70;61.50;;;;;;4990803;28;20299;-54
2023/11/15 08:09:58;;;;;;;3.77;1.80;;;9.80;61.40;;;;;;4981664;28;20227;-55
2023/11/15 08:12:26;;;;;;;4.27;1.80;;;9.80;61.00;;;;;;4981275;28;20237;-52
2023/11/15 08:14:53;;;;;;;2.30;1.73;;;9.80;61.10;;;;;;4990207;28;20288;-51
2023/11/15 08:17:19;;;;;;;2.20;2.00;;;9.80;61.20;;;;;;4983250;28;20211;-52
2023/11/15 08:19:48;;;;;;;2.50;1.83;;;9.90;60.70;;;;;;4978448;28;20211;-54
2023/11/15 08:22:16;;;;;;;2.80;1.60;;;9.90;60.30;;;;;;4963644;28;20221;-52
2023/11/15 08:24:46;;;;;;;4.17;1.50;;;9.90;60.00;;;;;;4984706;28;20587;-51
2023/11/15 08:27:13;;;;;;;2.23;1.97;;;10.00;59.10;;;;;;4984259;28;20475;-52
2023/11/15 08:29:39;;;;;;;1.90;1.70;;;10.00;58.70;;;;;;4992739;28;20230;-55
2023/11/15 08:32:06;;;;;;;2.50;1.80;;;9.80;59.40;;;;;;4982468;28;20241;-51
2023/11/15 08:34:33;;;;;;;3.87;2.27;;;9.90;60.30;;;;;;4992889;28;20596;-51
2023/11/15 08:36:59;;;;;;;2.93;1.40;;;9.90;59.90;;;;;;4985444;28;20639;-54
2023/11/15 08:39:27;;;;;;;3.23;1.70;;;9.90;59.90;;;;;;4990836;28;20236;-53
2023/11/15 08:41:54;;;;;;;2.43;1.47;;;9.80;60.00;;;;;;4977471;28;20293;-50
2023/11/15 08:44:20;;;;;;;1.70;1.60;;;9.90;59.90;;;;;;4983855;28;20629;-55
2023/11/15 08:46:47;;;;;;;3.67;1.80;;;9.90;60.00;;;;;;4980638;28;20229;-55
2023/11/15 08:49:15;;;;;;;5.43;1.90;;;9.90;60.00;;;;;;4989236;28;20325;-52
2023/11/15 08:51:41;;;;;;;3.23;1.70;;;9.90;58.80;;;;;;4995408;28;20233;-53
2023/11/15 08:54:09;;;;;;;2.50;1.60;;;10.00;57.90;;;;;;4991888;28;20216;-53
2023/11/15 08:56:36;;;;;;;2.23;1.43;;;10.00;57.90;;;;;;4985668;28;20710;-54
2023/11/15 08:59:03;;;;;;;2.83;1.80;;;10.00;57.90;;;;;;4981198;28;20214;-56
2023/11/15 09:01:29;;;;;;;3.53;1.70;;;10.00;57.90;;;;;;4977992;28;20213;-56
2023/11/15 09:03:56;;;;;;;2.00;1.50;;;10.20;58.10;;;;;;4988257;28;20736;-55
2023/11/15 09:06:23;;;;;;;2.10;1.43;;;10.20;58.10;;;;;;4990989;28;20671;-54
2023/11/15 09:08:50;;;;;;;2.23;1.80;;;10.10;58.00;;;;;;4982511;28;20212;-57
2023/11/15 09:11:16;;;;;;;1.90;1.47;;;10.10;57.70;;;;;;4992761;28;20230;-55
2023/11/15 09:13:42;;;;;;;2.67;1.53;;;10.00;57.90;;;;;;4991317;28;20305;-55
2023/11/15 09:16:12;;;;;;;2.27;1.70;;;10.00;57.90;;;;;;4989167;28;20667;-56
2023/11/15 09:18:39;;;;;;;4.20;1.90;;;10.00;57.90;;;;;;4989974;28;20218;-56
2023/11/15 09:21:05;;;;;;;5.23;1.90;;;10.00;57.90;;;;;;4986106;28;20706;-55
2023/11/15 09:23:32;;;;;;;2.87;1.50;;;10.00;57.90;;;;;;4993150;28;20264;-54
2023/11/15 09:25:59;;;;;;;1.60;1.50;;;10.10;58.00;;;;;;4990696;28;20234;-56
2023/11/15 09:28:26;;;;;;;4.13;1.50;;;10.00;57.90;;;;;;4993915;28;20212;-56
2023/11/15 09:30:52;;;;;;;1.50;1.40;;;10.00;57.90;;;;;;4980619;28;20270;-56
2023/11/15 09:33:19;;;;;;;2.10;1.70;;;10.00;57.40;;;;;;4988848;28;20243;-55
2023/11/15 09:35:45;;;;;;;3.33;1.50;;;10.00;57.90;;;;;;4992646;28;20257;-57
2023/11/15 09:38:13;;;;;;;3.10;1.90;;;10.00;57.90;;;;;;4989325;28;20236;-54
2023/11/15 09:40:40;;;;;;;2.43;1.40;;;10.00;58.00;;;;;;4987177;28;20288;-54
2023/11/15 09:43:06;;;;;;;3.53;1.90;;;10.00;60.10;;;;;;4995273;28;20843;-54
2023/11/15 09:45:34;;;;;;;2.70;1.60;;;9.90;61.60;;;;;;4992168;28;20700;-56
2023/11/15 09:48:02;;;;;;;2.27;1.57;;;10.00;59.90;;;;;;4996218;28;20221;-53
2023/11/15 09:50:33;;;;;;;2.30;1.70;;;10.10;59.60;;;;;;4992771;28;20272;-57
2023/11/15 09:53:03;;;;;;;4.10;2.27;;;10.20;59.80;;;;;;4983200;28;20226;-54
2023/11/15 09:55:29;;;;;;;1.73;1.40;;;10.30;58.60;;;;;;4993844;28;20294;-52
2023/11/15 09:57:55;;;;;;;2.53;1.60;;;10.50;60.60;;;;;;4990780;28;20207;-59
2023/11/15 10:00:22;;;;;;;4.07;1.80;;;10.50;58.30;;;;;;4990120;28;20211;-55
2023/11/15 10:02:48;;;;;;;3.57;2.53;;;10.70;58.00;;;;;;4984497;28;20303;-57
2023/11/15 10:05:20;;;;;;;1.80;1.70;;;10.80;57.40;;;;;;4982701;28;20235;-54
2023/11/15 10:07:48;;;;;;;3.20;1.47;;;10.80;58.60;;;;;;4992117;28;20590;-56
2023/11/15 10:10:16;;;;;;;1.97;1.50;;;10.70;59.60;;;;;;4986703;28;20240;-58
2023/11/15 10:14:06;;;;;;;7.20;2.07;;;10.60;59.90;;;;;;5122292;27;20584;-64
2023/11/15 10:16:34;;;;;;;2.07;1.47;;;10.60;60.20;;;;;;5110158;27;20230;-54
2023/11/15 10:19:00;;;;;;;2.27;1.97;;;10.90;58.70;;;;;;5116111;27;20274;-50
2023/11/15 10:21:28;;;;;;;5.93;1.90;;;11.10;57.30;;;;;;5099688;27;20948;-56
2023/11/15 10:23:55;;;;;;;2.90;1.53;;;11.30;56.30;;;;;;5098730;27;20194;-52
2023/11/15 10:26:21;;;;;;;2.10;1.50;;;11.10;55.50;;;;;;5110768;27;20237;-56
2023/11/15 10:28:49;;;;;;;2.70;1.50;;;10.90;55.80;;;;;;5114690;27;20238;-57
2023/11/15 10:31:18;;;;;;;1.77;1.50;;;10.80;56.70;;;;;;5110927;27;20298;-56
2023/11/15 10:33:45;;;;;;;2.30;1.67;;;10.70;55.20;;;;;;5109792;28;20220;-51
2023/11/15 10:36:11;;;;;;;2.47;1.50;;;10.60;55.00;;;;;;5113801;27;20257;-51
2023/11/15 10:38:38;;;;;;;1.70;1.17;;;10.50;54.30;;;;;;5121243;28;20230;-50
2023/11/15 10:41:06;;;;;;;2.13;1.40;;;10.50;53.90;;;;;;5111200;28;20574;-54
2023/11/15 10:43:33;;;;;;;1.40;1.30;;;10.50;54.50;;;;;;5110535;28;20201;-51
2023/11/15 10:45:59;;;;;;;1.80;1.40;;;10.60;54.20;;;;;;5114418;28;20233;-55
2023/11/15 10:48:26;;;;;;;3.53;1.60;;;10.50;54.00;;;;;;5114096;27;20202;-53
2023/11/15 10:50:53;;;;;;;3.20;1.70;;;10.50;54.60;;;;;;5115936;28;20289;-54
2023/11/15 10:53:19;;;;;;;2.87;1.90;;;10.50;55.00;;;;;;5115960;28;20231;-50
2023/11/15 10:55:46;;;;;;;1.87;1.50;;;10.60;55.20;;;;;;5119153;28;20593;-52
2023/11/15 10:58:14;;;;;;;3.40;1.53;;;10.60;55.00;;;;;;5111744;28;20206;-53
2023/11/15 11:00:41;;;;;;;1.83;1.50;;;10.60;55.60;;;;;;5119153;28;20206;-51
2023/11/15 11:03:08;;;;;;;1.87;1.60;;;10.60;55.60;;;;;;5116841;28;20209;-53
2023/11/15 11:05:34;;;;;;;2.43;1.70;;;10.60;55.40;;;;;;5106011;27;20226;-52
2023/11/15 11:08:02;;;;;;;2.40;2.20;;;10.50;54.90;;;;;;5113159;28;20226;-53
2023/11/15 11:10:28;;;;;;;2.13;1.70;;;10.60;55.60;;;;;;5123783;28;20289;-53
2023/11/15 11:12:58;;;;;;;1.90;1.70;;;10.60;56.80;;;;;;5114648;27;20261;-51
2023/11/15 11:15:26;;;;;;;3.10;1.80;;;10.60;56.80;;;;;;5116372;28;20226;-49
2023/11/15 11:17:53;;;;;;;3.20;1.80;;;10.60;54.90;;;;;;5088159;27;20207;-54
2023/11/15 11:20:19;;;;;;;2.07;1.30;;;10.50;54.80;;;;;;5112851;27;21853;-50
2023/11/15 11:22:46;;;;;;;1.60;1.50;;;10.60;54.10;;;;;;5116686;27;20213;-53
2023/11/15 11:25:13;;;;;;;5.30;2.23;;;10.60;53.80;;;;;;5106832;27;20700;-56
2023/11/15 11:27:42;;;;;;;3.10;1.57;;;10.60;53.80;;;;;;5106373;28;20204;-51
2023/11/15 11:30:11;;;;;;;2.97;1.50;;;10.60;54.40;;;;;;5083065;27;20622;-55
2023/11/15 11:32:38;;;;;;;2.47;1.40;;;10.50;56.00;;;;;;5085067;27;20614;-53
2023/11/15 11:35:05;;;;;;;2.40;1.50;;;10.60;57.10;;;;;;5084481;27;20227;-53
2023/11/15 11:37:32;;;;;;;2.80;1.90;;;10.60;57.60;;;;;;5081219;27;20214;-53
2023/11/15 11:40:00;;;;;;;2.33;1.50;;;10.70;57.90;;;;;;5085126;27;20204;-51
2023/11/15 11:42:26;;;;;;;3.03;1.90;;;10.80;57.40;;;;;;5084642;27;20207;-51
2023/11/15 11:44:54;;;;;;;1.67;1.47;;;10.70;58.50;;;;;;5088488;28;20299;-55
2023/11/15 11:47:21;;;;;;;2.07;1.60;;;10.70;58.00;;;;;;5084568;27;20203;-56
2023/11/15 11:49:47;;;;;;;3.17;1.83;;;10.60;58.60;;;;;;5088850;28;20207;-51
2023/11/15 11:52:14;;;;;;;2.00;1.67;;;10.50;59.40;;;;;;5103690;27;20231;-53
2023/11/15 11:54:40;;;;;;;1.73;1.60;;;10.40;60.60;;;;;;5110335;28;20260;-56
2023/11/15 11:57:07;;;;;;;1.60;1.50;;;10.30;62.40;;;;;;5104565;28;20218;-53
2023/11/15 11:59:33;;;;;;;1.83;1.73;;;10.30;63.30;;;;;;5107024;28;20207;-54
2023/11/15 12:02:00;;;;;;;1.60;1.50;;;10.20;63.90;;;;;;5109003;28;20301;-54
2023/11/15 12:04:27;;;;;;;1.50;1.30;;;10.20;64.80;;;;;;5105559;28;20210;-52
2023/11/15 12:06:53;;;;;;;1.43;1.33;;;10.10;64.10;;;;;;5109296;28;20200;-48
2023/11/15 12:09:20;;;;;;;3.20;2.00;;;10.00;64.70;;;;;;5096007;28;20265;-53
2023/11/15 12:11:47;;;;;;;1.73;1.63;;;10.00;66.20;;;;;;5102804;28;20300;-52
2023/11/15 12:14:15;;;;;;;3.07;1.50;;;9.80;69.00;;;;;;5103445;28;20223;-50
2023/11/15 12:16:41;;;;;;;1.70;1.60;;;9.90;70.00;;;;;;5103315;28;20209;-51
2023/11/15 12:19:09;;;;;;;2.17;1.60;;;9.90;69.30;;;;;;5109281;28;20293;-53
2023/11/15 12:21:36;;;;;;;2.13;1.70;;;10.10;68.10;;;;;;5101294;28;20213;-51
2023/11/15 12:24:06;;;;;;;3.40;1.70;;;10.10;69.20;;;;;;5107349;28;20210;-51
2023/11/15 12:26:32;;;;;;;4.43;1.93;;;10.00;69.90;;;;;;5093959;27;20226;-55
2023/11/15 12:28:59;;;;;;;2.63;1.70;;;10.30;67.30;;;;;;5097780;28;20281;-51
2023/11/15 12:31:26;;;;;;;3.30;1.87;;;10.30;67.30;;;;;;5090347;28;20231;-56
2023/11/15 12:33:53;;;;;;;2.10;1.90;;;11.00;64.90;;;;;;5100775;28;20699;-56
2023/11/15 12:36:21;;;;;;;3.17;2.17;;;14.10;54.40;;;;;;5111081;28;20307;-52
2023/11/15 12:38:47;;;;;;;3.13;1.75;;;15.30;50.10;;;;;;5103078;28;20290;-56
2023/11/15 12:41:14;;;;;;;2.38;1.50;;;15.80;48.40;;;;;;5105284;28;20511;-55
2023/11/15 12:43:40;;;;;;;1.98;1.33;;;15.10;49.00;;;;;;5103557;28;20200;-56
2023/11/15 12:46:07;;;;;;;1.88;1.35;;;13.40;52.10;;;;;;5093307;28;20297;-53
2023/11/15 12:48:33;;;;;;;1.53;1.37;;;12.10;55.50;;;;;;5107475;28;20205;-55
2023/11/15 12:51:00;;;;;;;2.57;1.60;;;11.50;58.10;;;;;;5095236;28;20212;-54